Time;durP1;ratioP1;P1;durP2;ratioP2;P2;SDS_P1;SDS_P2;PMS_P1;PMS_P2;Temp;Humidity;BMP_temperature;BMP_pressure;BME280_temperature;BME280_humidity;BME280_pressure;Samples;Min_cycle;Max_cycle;Signal;HPM_P1;HPM_P2
2022/05/26 00:01:35;;;;;;;6.72;4.93;;;;;;;-150.07;100.00;67148.00;5039830;28;20037;-87
2022/05/26 00:04:02;;;;;;;9.15;5.43;;;;;;;-150.07;100.00;67148.00;5065106;28;20033;-87
2022/05/26 00:06:29;;;;;;;7.55;4.75;;;;;;;-150.07;100.00;67148.00;5048327;28;20040;-86
2022/05/26 00:08:57;;;;;;;6.60;5.28;;;;;;;-150.07;100.00;67148.00;5051649;28;20032;-88
2022/05/26 00:11:33;;;;;;;9.20;5.22;;;;;;;-150.07;100.00;67148.00;5043702;28;20029;-89
2022/05/26 00:14:07;;;;;;;7.00;5.35;;;;;;;-150.07;100.00;67148.00;5043868;28;20033;-88
2022/05/26 00:16:43;;;;;;;8.95;5.32;;;;;;;-150.07;100.00;67148.00;5043450;28;20470;-88
2022/05/26 00:19:11;;;;;;;7.05;4.45;;;;;;;-150.07;100.00;67148.00;5041323;28;20049;-85
2022/05/26 00:21:39;;;;;;;7.13;5.43;;;;;;;-150.07;100.00;67148.00;5043592;28;20029;-88
2022/05/26 00:24:07;;;;;;;6.78;4.93;;;;;;;-150.07;100.00;67148.00;5041854;28;20033;-87
2022/05/26 00:26:33;;;;;;;6.10;5.03;;;;;;;-150.07;100.00;67148.00;5041761;28;20021;-86
2022/05/26 00:29:03;;;;;;;7.65;4.68;;;;;;;-150.07;100.00;67148.00;5059908;28;20032;-88
2022/05/26 00:31:30;;;;;;;7.25;4.95;;;;;;;-150.07;100.00;67148.00;5060920;28;20112;-88
2022/05/26 00:33:57;;;;;;;9.10;4.57;;;;;;;-150.07;100.00;67148.00;5042995;28;20083;-87
2022/05/26 00:36:41;;;;;;;6.05;5.03;;;;;;;-150.07;100.00;67148.00;5042616;28;20020;-87
2022/05/26 00:39:21;;;;;;;7.07;4.40;;;;;;;-150.07;100.00;67148.00;5041753;28;20107;-85
2022/05/26 00:41:54;;;;;;;8.65;5.25;;;;;;;-150.07;100.00;67148.00;5027133;28;20124;-89
2022/05/26 00:44:21;;;;;;;11.18;5.20;;;;;;;-150.07;100.00;67148.00;5059059;28;20049;-88
2022/05/26 00:46:54;;;;;;;9.95;5.97;;;;;;;-150.07;100.00;67148.00;5041120;28;20492;-87
2022/05/26 00:49:59;;;;;;;8.40;4.93;;;;;;;-150.07;100.00;67148.00;5048872;28;20392;-87
2022/05/26 00:52:57;;;;;;;9.63;5.40;;;;;;;-150.07;100.00;67148.00;5041367;28;20021;-87
2022/05/26 00:55:36;;;;;;;7.32;4.63;;;;;;;-150.07;100.00;67148.00;5040324;28;20034;-88
2022/05/26 00:58:09;;;;;;;7.57;4.40;;;;;;;-150.07;100.00;67148.00;5041755;28;20527;-87
2022/05/26 01:00:38;;;;;;;10.35;3.92;;;;;;;-150.07;100.00;67148.00;5041477;28;20056;-87
2022/05/26 01:03:12;;;;;;;14.52;3.78;;;;;;;-150.07;100.00;67148.00;5040863;28;20029;-86
2022/05/26 01:05:47;;;;;;;4.63;3.97;;;;;;;-150.07;100.00;67148.00;5043789;28;20078;-87
2022/05/26 01:08:26;;;;;;;8.13;5.00;;;;;;;-150.07;100.00;67148.00;5040840;28;20025;-88
2022/05/26 01:10:53;;;;;;;7.72;4.30;;;;;;;-150.07;100.00;67148.00;5041143;28;20493;-87
2022/05/26 01:13:21;;;;;;;6.30;3.83;;;;;;;-150.07;100.00;67148.00;5040706;28;20441;-87
2022/05/26 01:16:05;;;;;;;6.15;4.05;;;;;;;-150.07;100.00;67148.00;5041124;28;20036;-89
2022/05/26 01:19:04;;;;;;;4.72;3.70;;;;;;;-150.07;100.00;67148.00;5041223;28;20025;-88
2022/05/26 01:21:40;;;;;;;7.60;4.47;;;;;;;-150.07;100.00;67148.00;5041656;28;20373;-88
2022/05/26 01:24:45;;;;;;;5.35;3.55;;;;;;;-150.07;100.00;67148.00;5058937;28;20595;-86
2022/05/26 01:27:31;;;;;;;4.05;3.38;;;;;;;-150.07;100.00;67148.00;5061012;28;20029;-88
2022/05/26 01:30:30;;;;;;;5.45;2.97;;;;;;;-150.07;100.00;67148.00;5039836;28;20021;-88
2022/05/26 01:33:10;;;;;;;4.38;2.53;;;;;;;-150.07;100.00;67148.00;5059159;28;20119;-88
2022/05/26 01:35:59;;;;;;;;;;;;;;;-150.07;100.00;67148.00;5040493;28;20035;-84
2022/05/26 01:38:52;;;;;;;7.82;2.83;;;;;;;-150.07;100.00;67148.00;5039286;28;19915;-85
2022/05/26 01:41:19;;;;;;;4.18;2.70;;;;;;;-150.07;100.00;67148.00;5041769;28;20036;-86
2022/05/26 01:43:56;;;;;;;5.78;3.85;;;;;;;-150.07;100.00;67148.00;5039435;28;20513;-85
2022/05/26 01:46:40;;;;;;;8.25;4.68;;;;;;;-150.07;100.00;67148.00;5041527;28;20041;-86
2022/05/26 01:49:44;;;;;;;5.85;3.55;;;;;;;-150.07;100.00;67148.00;5060675;28;20036;-85
2022/05/26 01:52:35;;;;;;;9.20;4.85;;;;;;;-150.07;100.00;67148.00;5060608;28;20076;-87
2022/05/26 01:55:21;;;;;;;4.95;4.28;;;;;;;-150.07;100.00;67148.00;5059209;28;20103;-88
2022/05/26 01:58:11;;;;;;;9.90;3.85;;;;;;;-150.07;100.00;67148.00;5040732;28;20037;-87
2022/05/26 02:00:38;;;;;;;4.07;3.55;;;;;;;-150.07;100.00;67148.00;5032313;28;20041;-87
2022/05/26 02:03:19;;;;;;;8.95;4.25;;;;;;;-150.07;100.00;67148.00;5041330;28;20044;-86
2022/05/26 02:06:08;;;;;;;7.93;4.20;;;;;;;-150.07;100.00;67148.00;5039575;28;20032;-88
2022/05/26 02:08:49;;;;;;;8.00;4.23;;;;;;;-150.07;100.00;67148.00;5058205;28;20025;-88
2022/05/26 02:11:19;;;;;;;6.03;3.83;;;;;;;-150.07;100.00;67148.00;5039754;28;20029;-88
2022/05/26 02:13:59;;;;;;;7.55;3.65;;;;;;;-150.07;100.00;67148.00;5043423;28;20021;-88
2022/05/26 02:16:39;;;;;;;13.38;3.17;;;;;;;-150.07;100.00;67148.00;5041815;28;20033;-88
2022/05/26 02:19:11;;;;;;;5.82;2.55;;;;;;;-150.07;100.00;67148.00;5060067;28;20111;-87
2022/05/26 02:21:46;;;;;;;4.93;3.08;;;;;;;-150.07;100.00;67148.00;5041569;28;20040;-88
2022/05/26 02:24:24;;;;;;;4.05;3.25;;;;;;;-150.07;100.00;67148.00;5040614;28;20029;-88
2022/05/26 02:26:51;;;;;;;5.28;3.30;;;;;;;-150.07;100.00;67148.00;5039660;28;20029;-87
2022/05/26 02:32:05;;;;;;;6.68;4.13;;;;;;;-150.07;100.00;67148.00;5057715;28;20036;-89
2022/05/26 02:34:32;;;;;;;5.07;3.75;;;;;;;-150.07;100.00;67148.00;5056556;28;20373;-85
2022/05/26 02:37:01;;;;;;;12.73;4.95;;;;;;;-150.07;100.00;67148.00;5040867;28;20027;-89
2022/05/26 02:39:27;;;;;;;5.82;4.63;;;;;;;-150.07;100.00;67148.00;5043290;28;20116;-88
2022/05/26 02:41:57;;;;;;;5.65;3.72;;;;;;;-150.07;100.00;67148.00;5042218;28;20029;-88
2022/05/26 02:44:33;;;;;;;12.20;3.92;;;;;;;-150.07;100.00;67148.00;5043704;28;20032;-87
2022/05/26 02:47:26;;;;;;;8.27;4.15;;;;;;;-150.07;100.00;67148.00;5046895;28;20040;-88
2022/05/26 02:50:34;;;;;;;7.85;3.58;;;;;;;-150.07;100.00;67148.00;5049484;28;20029;-87
2022/05/26 02:53:23;;;;;;;6.30;3.22;;;;;;;-150.07;100.00;67148.00;5036675;23;20042;-87
2022/05/26 02:56:06;;;;;;;5.18;3.28;;;;;;;-150.07;100.00;67148.00;5021093;28;20065;-87
2022/05/26 02:58:39;;;;;;;7.13;3.25;;;;;;;-150.07;100.00;67148.00;5046131;28;20048;-86
2022/05/26 03:01:22;;;;;;;8.23;4.03;;;;;;;-150.07;100.00;67148.00;5029368;28;20013;-86
2022/05/26 03:04:15;;;;;;;9.25;3.78;;;;;;;-150.07;100.00;67148.00;5028828;28;20584;-86
2022/05/26 03:06:49;;;;;;;3.60;2.88;;;;;;;-150.07;100.00;67148.00;5047085;28;20486;-87
2022/05/26 03:09:17;;;;;;;4.70;3.88;;;;;;;-150.07;100.00;67148.00;5029009;28;20032;-86
2022/05/26 03:11:54;;;;;;;9.30;3.25;;;;;;;-150.07;100.00;67148.00;5028492;28;20079;-87
2022/05/26 03:14:22;;;;;;;5.88;2.80;;;;;;;-150.07;100.00;67148.00;5044785;28;20033;-86
2022/05/26 03:16:50;;;;;;;10.35;4.45;;;;;;;-150.07;100.00;67148.00;5023236;28;20591;-87
2022/05/26 03:19:19;;;;;;;8.20;3.33;;;;;;;-150.07;100.00;67148.00;5041496;28;20068;-87
2022/05/26 03:21:47;;;;;;;7.40;3.97;;;;;;;-150.07;100.00;67148.00;5024364;28;20030;-88
2022/05/26 03:24:14;;;;;;;12.60;4.75;;;;;;;-150.07;100.00;67148.00;5023700;28;20037;-87
2022/05/26 03:26:41;;;;;;;8.70;3.70;;;;;;;-150.07;100.00;67148.00;5026278;28;20037;-87
2022/05/26 03:29:08;;;;;;;6.75;3.15;;;;;;;-150.07;100.00;67148.00;5026941;28;20032;-86
2022/05/26 03:31:39;;;;;;;5.32;3.17;;;;;;;-150.07;100.00;67148.00;5026778;28;20508;-87
2022/05/26 03:42:23;;;;;;;7.57;2.80;;;;;;;-150.07;100.00;67148.00;5041802;28;20048;-87
2022/05/26 03:44:52;;;;;;;3.75;2.92;;;;;;;-150.07;100.00;67148.00;5044732;28;20033;-88
2022/05/26 03:47:19;;;;;;;8.60;3.42;;;;;;;-150.07;100.00;67148.00;5041429;28;20077;-89
2022/05/26 03:49:46;;;;;;;7.63;3.22;;;;;;;-150.07;100.00;67148.00;5027194;28;20093;-87
2022/05/26 03:52:12;;;;;;;10.68;3.25;;;;;;;-150.07;100.00;67148.00;5024921;28;20108;-88
2022/05/26 03:54:39;;;;;;;8.32;3.65;;;;;;;-150.07;100.00;67148.00;5026076;28;20032;-88
2022/05/26 03:59:44;;;;;;;7.65;3.25;;;;;;;-150.07;100.00;67148.00;5065269;23;20053;-87
2022/05/26 04:02:10;;;;;;;10.82;2.97;;;;;;;-150.07;100.00;67148.00;5065246;28;20036;-87
2022/05/26 04:04:37;;;;;;;8.98;3.20;;;;;;;-150.07;100.00;67148.00;5063843;28;20044;-90
2022/05/26 04:07:04;;;;;;;7.35;3.83;;;;;;;-150.07;100.00;67148.00;5045679;28;20520;-86
2022/05/26 04:09:31;;;;;;;11.40;3.17;;;;;;;-150.07;100.00;67148.00;5041878;28;20017;-86
2022/05/26 04:11:58;;;;;;;8.20;2.90;;;;;;;-150.07;100.00;67148.00;5043348;28;20052;-87
2022/05/26 04:14:25;;;;;;;11.07;2.28;;;;;;;-150.07;100.00;67148.00;5046104;28;20032;-87
2022/05/26 04:16:53;;;;;;;3.35;2.25;;;;;;;-150.07;100.00;67148.00;5060898;28;20033;-86
2022/05/26 04:19:19;;;;;;;6.65;2.75;;;;;;;-150.07;100.00;67148.00;5038248;28;20091;-87
2022/05/26 04:24:31;;;;;;;9.23;3.72;;;;;;;-150.07;100.00;67148.00;5055288;28;20503;-88
2022/05/26 04:26:58;;;;;;;4.07;2.75;;;;;;;-150.07;100.00;67148.00;5037101;28;20443;-87
2022/05/26 04:29:25;;;;;;;14.75;2.83;;;;;;;-150.07;100.00;67148.00;5036892;28;20029;-88
2022/05/26 04:31:52;;;;;;;6.70;2.38;;;;;;;-150.07;100.00;67148.00;5038190;28;20097;-87
2022/05/26 04:34:19;;;;;;;5.28;3.20;;;;;;;-150.07;100.00;67148.00;5037042;28;20029;-88
2022/05/26 04:36:47;;;;;;;13.25;4.43;;;;;;;-150.07;100.00;67148.00;5036705;28;20033;-87
2022/05/26 04:39:17;;;;;;;8.57;3.63;;;;;;;-150.07;100.00;67148.00;5043017;28;20040;-87
2022/05/26 04:41:44;;;;;;;10.02;3.95;;;;;;;-150.07;100.00;67148.00;5063244;28;20031;-88
2022/05/26 04:44:12;;;;;;;13.13;3.30;;;;;;;-150.07;100.00;67148.00;5041116;28;20040;-88
2022/05/26 04:46:39;;;;;;;9.05;3.78;;;;;;;-150.07;100.00;67148.00;5040093;28;20040;-89
2022/05/26 04:49:07;;;;;;;10.75;4.72;;;;;;;-150.07;100.00;67148.00;5039005;28;20021;-88
2022/05/26 04:51:35;;;;;;;14.35;3.67;;;;;;;-150.07;100.00;67148.00;5037057;28;20131;-87
2022/05/26 04:54:04;;;;;;;8.30;3.47;;;;;;;-150.07;100.00;67148.00;5039793;28;20024;-87
2022/05/26 04:56:31;;;;;;;11.45;3.80;;;;;;;-150.07;100.00;67148.00;5041822;28;20497;-86
2022/05/26 04:58:58;;;;;;;8.02;3.17;;;;;;;-150.07;100.00;67148.00;5040981;28;20053;-87
2022/05/26 05:01:25;;;;;;;5.65;4.18;;;;;;;-150.07;100.00;67148.00;5060633;28;20021;-87
2022/05/26 05:03:52;;;;;;;5.53;3.45;;;;;;;-150.07;100.00;67148.00;5043761;28;20092;-87
2022/05/26 05:06:19;;;;;;;10.20;3.50;;;;;;;-150.07;100.00;67148.00;5043925;28;20492;-87
2022/05/26 05:08:46;;;;;;;9.90;3.17;;;;;;;-150.07;100.00;67148.00;5057609;28;20111;-87
2022/05/26 05:11:13;;;;;;;8.98;3.70;;;;;;;-150.07;100.00;67148.00;5024048;28;20033;-88
2022/05/26 05:13:41;;;;;;;5.22;2.80;;;;;;;-150.07;100.00;67148.00;5040497;28;20766;-86
2022/05/26 05:16:20;;;;;;;14.13;3.97;;;;;;;-150.07;100.00;67148.00;5057484;28;20080;-86
2022/05/26 05:18:47;;;;;;;9.07;4.03;;;;;;;-150.07;100.00;67148.00;5038200;28;20031;-85
2022/05/26 05:21:22;;;;;;;5.47;3.67;;;;;;;-150.07;100.00;67148.00;5039389;28;20029;-86
2022/05/26 05:23:55;;;;;;;8.15;3.03;;;;;;;-150.07;100.00;67148.00;5041640;28;20087;-88
2022/05/26 05:26:24;;;;;;;6.35;2.72;;;;;;;-150.07;100.00;67148.00;5041146;28;20029;-86
2022/05/26 05:28:59;;;;;;;7.03;3.22;;;;;;;-150.07;100.00;67148.00;5061038;28;20037;-87
2022/05/26 05:31:32;;;;;;;9.52;3.05;;;;;;;-150.07;100.00;67148.00;5061931;28;20071;-88
2022/05/26 05:34:05;;;;;;;5.45;2.60;;;;;;;-150.07;100.00;67148.00;5041954;28;20050;-87
2022/05/26 05:36:35;;;;;;;6.22;2.30;;;;;;;-150.07;100.00;67148.00;5042397;28;20028;-87
2022/05/26 05:39:03;;;;;;;8.67;3.77;;;;;;;-150.07;100.00;67148.00;5044354;28;20492;-84
2022/05/26 05:41:33;;;;;;;6.57;2.33;;;;;;;-150.07;100.00;67148.00;5062785;28;20267;-87
2022/05/26 05:44:02;;;;;;;5.35;3.38;;;;;;;-150.07;100.00;67148.00;5064158;28;20025;-87
2022/05/26 05:47:14;;;;;;;9.15;3.05;;;;;;;-150.07;100.00;67148.00;5045287;28;20517;-88
2022/05/26 05:49:16;;;;;;;5.75;2.20;;;;;;;-150.07;100.00;67148.00;5043132;28;20124;-88
2022/05/26 05:51:42;;;;;;;11.18;2.30;;;;;;;-150.07;100.00;67148.00;5059376;28;20110;-88
2022/05/26 05:54:09;;;;;;;5.25;2.13;;;;;;;-150.07;100.00;67148.00;5039911;28;20037;-87
2022/05/26 05:56:36;;;;;;;6.63;2.33;;;;;;;-150.07;100.00;67148.00;5040028;28;20025;-86
2022/05/26 05:59:03;;;;;;;11.82;3.05;;;;;;;-150.07;100.00;67148.00;5041346;28;20090;-87
2022/05/26 06:01:29;;;;;;;6.55;2.40;;;;;;;-150.07;100.00;67148.00;5057658;28;20029;-87
2022/05/26 06:03:56;;;;;;;7.38;2.40;;;;;;;-150.07;100.00;67148.00;5041709;28;20110;-86
2022/05/26 06:06:23;;;;;;;8.82;2.25;;;;;;;-150.07;100.00;67148.00;5048175;28;20076;-87
2022/05/26 06:08:50;;;;;;;6.55;1.85;;;;;;;-150.07;100.00;67148.00;5039839;28;20032;-86
2022/05/26 06:11:17;;;;;;;7.03;1.77;;;;;;;-150.07;100.00;67148.00;5039874;28;20025;-88
2022/05/26 06:13:44;;;;;;;2.92;1.67;;;;;;;-150.07;100.00;67148.00;5058085;28;20067;-87
2022/05/26 06:16:13;;;;;;;5.82;2.28;;;;;;;-150.07;100.00;67148.00;5058197;28;20028;-87
2022/05/26 06:18:40;;;;;;;4.00;2.20;;;;;;;-150.07;100.00;67148.00;5040938;28;20032;-88
2022/05/26 06:21:07;;;;;;;1.63;1.40;;;;;;;-150.07;100.00;67148.00;5058069;28;20117;-87
2022/05/26 06:23:35;;;;;;;4.97;1.63;;;;;;;-150.07;100.00;67148.00;5042494;28;20056;-87
2022/05/26 06:26:02;;;;;;;3.55;1.92;;;;;;;-150.07;100.00;67148.00;5040096;28;20132;-83
2022/05/26 06:31:14;;;;;;;4.93;2.15;;;;;;;-150.07;100.00;67148.00;5056031;28;20131;-83
2022/05/26 06:39:11;;;;;;;12.32;3.25;;;;;;;-150.07;100.00;67148.00;5060393;28;20389;-88
2022/05/26 06:44:08;;;;;;;3.88;1.70;;;;;;;-150.07;100.00;67148.00;5084203;28;20102;-87
2022/05/26 06:46:50;;;;;;;4.55;2.17;;;;;;;-150.07;100.00;67148.00;5084560;28;20060;-88
2022/05/26 06:51:46;;;;;;;2.30;1.58;;;;;;;-150.07;100.00;67148.00;5347406;23;20056;-87
2022/05/26 06:54:13;;;;;;;2.30;1.70;;;;;;;-150.07;100.00;67148.00;5059937;28;20039;-86
2022/05/26 06:56:40;;;;;;;4.10;1.40;;;;;;;-150.07;100.00;67148.00;5077841;28;20032;-88
2022/05/26 06:59:07;;;;;;;4.93;1.27;;;;;;;-150.07;100.00;67148.00;5056355;28;20394;-87
2022/05/26 07:01:36;;;;;;;3.72;1.75;;;;;;;-150.07;100.00;67148.00;5087441;28;20029;-88
2022/05/26 07:04:04;;;;;;;4.85;2.45;;;;;;;-150.07;100.00;67148.00;5062325;28;20023;-88
2022/05/26 07:06:32;;;;;;;5.50;2.30;;;;;;;-150.07;100.00;67148.00;5063588;28;20094;-83
2022/05/26 07:09:05;;;;;;;3.28;1.75;;;;;;;-150.07;100.00;67148.00;5080207;28;20105;-89
2022/05/26 07:11:32;;;;;;;4.95;1.80;;;;;;;-150.07;100.00;67148.00;5044066;28;20127;-90
2022/05/26 07:14:00;;;;;;;4.38;1.67;;;;;;;-150.07;100.00;67148.00;5057553;28;20075;-90
2022/05/26 07:16:27;;;;;;;5.78;1.52;;;;;;;-150.07;100.00;67148.00;5033075;28;20037;-91
2022/05/26 07:18:55;;;;;;;2.42;1.65;;;;;;;-150.07;100.00;67148.00;5043445;28;20020;-91
2022/05/26 07:21:22;;;;;;;4.10;1.48;;;;;;;-150.07;100.00;67148.00;5043506;28;20036;-90
2022/05/26 07:23:49;;;;;;;5.30;2.47;;;;;;;-150.07;100.00;67148.00;5063757;28;20111;-90
2022/05/26 07:26:17;;;;;;;1.40;1.27;;;;;;;-150.07;100.00;67148.00;5063576;28;20092;-90
2022/05/26 07:28:44;;;;;;;4.00;1.83;;;;;;;-150.07;100.00;67148.00;5051873;28;20020;-90
2022/05/26 07:31:13;;;;;;;4.70;1.98;;;;;;;-150.07;100.00;67148.00;5064011;28;20044;-90
2022/05/26 07:33:47;;;;;;;5.30;2.22;;;;;;;-150.07;100.00;67148.00;5064828;28;20039;-89
2022/05/26 07:41:58;;;;;;;4.55;1.70;;;;;;;-150.07;100.00;67148.00;5066753;28;20115;-87
2022/05/26 07:44:26;;;;;;;2.80;2.03;;;;;;;-150.07;100.00;67148.00;5031177;28;20039;-87
2022/05/26 07:46:53;;;;;;;8.68;2.15;;;;;;;-150.07;100.00;67148.00;5056582;28;20024;-88
2022/05/26 07:49:20;;;;;;;3.97;1.50;;;;;;;-150.07;100.00;67148.00;5058044;28;20046;-88
2022/05/26 07:51:46;;;;;;;5.55;1.65;;;;;;;-150.07;100.00;67148.00;5054648;28;20148;-86
2022/05/26 07:54:13;;;;;;;8.32;2.20;;;;;;;-150.07;100.00;67148.00;5036980;28;20029;-87
2022/05/26 07:56:43;;;;;;;2.13;1.17;;;;;;;-150.07;100.00;67148.00;5041435;28;20071;-88
2022/05/26 07:59:10;;;;;;;;;;;;;;;-150.07;100.00;67148.00;5040641;28;20108;-88
2022/05/26 08:01:37;;;;;;;1.77;1.58;;;;;;;-150.07;100.00;67148.00;5055755;28;20031;-87
2022/05/26 08:04:07;;;;;;;7.95;1.60;;;;;;;-150.07;100.00;67148.00;5054644;28;20040;-88
2022/05/26 08:06:35;;;;;;;5.18;2.10;;;;;;;-150.07;100.00;67148.00;5055586;28;20031;-87
2022/05/26 08:09:02;;;;;;;2.30;1.80;;;;;;;-150.07;100.00;67148.00;5065924;28;20548;-87
2022/05/26 08:11:29;;;;;;;2.70;1.60;;;;;;;-150.07;100.00;67148.00;5060279;28;20061;-87
2022/05/26 08:13:56;;;;;;;4.10;1.63;;;;;;;-150.07;100.00;67148.00;5050212;28;20464;-88
2022/05/26 08:16:22;;;;;;;5.18;1.90;;;;;;;-150.07;100.00;67148.00;5054621;28;20031;-88
2022/05/26 08:18:49;;;;;;;4.35;1.65;;;;;;;-150.07;100.00;67148.00;5053850;28;20031;-84
2022/05/26 08:21:18;;;;;;;3.40;1.90;;;;;;;-150.07;100.00;67148.00;5039990;28;20038;-86
2022/05/26 08:23:45;;;;;;;6.72;3.17;;;;;;;-150.07;100.00;67148.00;5046717;28;20025;-86
2022/05/26 08:26:12;;;;;;;8.35;1.92;;;;;;;-150.07;100.00;67148.00;5053283;28;20128;-84
2022/05/26 08:28:39;;;;;;;10.20;2.42;;;;;;;-150.07;100.00;67148.00;5052011;28;20036;-84
2022/05/26 08:31:08;;;;;;;4.57;2.00;;;;;;;-150.07;100.00;67148.00;5057372;28;20132;-87
2022/05/26 08:33:36;;;;;;;8.10;2.53;;;;;;;-150.07;100.00;67148.00;5052995;28;20036;-86
2022/05/26 08:36:15;;;;;;;6.50;2.13;;;;;;;-150.07;100.00;67148.00;5056854;28;20060;-85
2022/05/26 08:38:44;;;;;;;3.85;2.30;;;;;;;-150.07;100.00;67148.00;5046170;28;20572;-86
2022/05/26 08:41:25;;;;;;;10.68;2.42;;;;;;;-150.07;100.00;67148.00;5056227;28;20044;-87
2022/05/26 08:44:04;;;;;;;3.30;2.08;;;;;;;-150.07;100.00;67148.00;5050693;28;20029;-88
2022/05/26 08:46:54;;;;;;;2.70;1.80;;;;;;;-150.07;100.00;67148.00;5056787;28;20037;-87
2022/05/26 08:49:29;;;;;;;4.10;1.80;;;;;;;-150.07;100.00;67148.00;5054831;28;20025;-88
2022/05/26 08:52:06;;;;;;;4.13;2.45;;;;;;;-150.07;100.00;67148.00;5053501;28;20045;-86
2022/05/26 08:54:58;;;;;;;6.50;2.97;;;;;;;-150.07;100.00;67148.00;5046662;28;20045;-87
2022/05/26 08:57:40;;;;;;;4.47;1.85;;;;;;;-150.07;100.00;67148.00;5047413;28;20544;-85
2022/05/26 09:00:15;;;;;;;6.55;2.45;;;;;;;-150.07;100.00;67148.00;5041249;28;20017;-86
2022/05/26 09:02:42;;;;;;;5.43;2.10;;;;;;;-150.07;100.00;67148.00;5049021;28;20390;-88
2022/05/26 09:05:19;;;;;;;4.63;2.35;;;;;;;-150.07;100.00;67148.00;5047993;28;20033;-86
2022/05/26 09:13:41;;;;;;;;;;;;;;;-150.07;100.00;67148.00;5041364;28;20047;-89
2022/05/26 09:16:10;;;;;;;5.47;2.50;;;;;;;-150.07;100.00;67148.00;5039220;28;19998;-87
2022/05/26 09:18:38;;;;;;;4.90;2.50;;;;;;;-150.07;100.00;67148.00;5039838;28;20089;-87
2022/05/26 09:21:17;;;;;;;5.13;2.97;;;;;;;-150.07;100.00;67148.00;5032221;28;20509;-87
2022/05/26 09:23:47;;;;;;;5.75;2.53;;;;;;;-150.07;100.00;67148.00;5034338;28;20041;-87
2022/05/26 09:26:20;;;;;;;4.20;3.03;;;;;;;-150.07;100.00;67148.00;5036752;28;20498;-87
2022/05/26 09:28:49;;;;;;;6.20;2.47;;;;;;;-150.07;100.00;67148.00;5039210;28;20105;-89
2022/05/26 09:31:33;;;;;;;5.10;2.95;;;;;;;-150.07;100.00;67148.00;5039907;28;20037;-88
2022/05/26 09:34:17;;;;;;;4.97;2.30;;;;;;;-150.07;100.00;67148.00;5025504;28;20073;-87
2022/05/26 09:36:50;;;;;;;8.82;2.70;;;;;;;-150.07;100.00;67148.00;5019351;28;20104;-88
2022/05/26 09:39:34;;;;;;;5.55;2.75;;;;;;;-150.07;100.00;67148.00;5028115;28;20367;-87
2022/05/26 09:42:03;;;;;;;5.80;3.03;;;;;;;-150.07;100.00;67148.00;5031963;28;20444;-89
2022/05/26 09:44:46;;;;;;;8.45;2.80;;;;;;;-150.07;100.00;67148.00;5021543;28;20037;-88
2022/05/26 09:47:58;;;;;;;3.92;2.40;;;;;;;-150.07;100.00;67148.00;5037661;28;20034;-90
2022/05/26 09:50:35;;;;;;;5.30;3.25;;;;;;;-150.07;100.00;67148.00;4980527;28;20124;-87
2022/05/26 09:53:05;;;;;;;15.52;3.55;;;;;;;-150.07;100.00;67148.00;5062891;28;20084;-88
2022/05/26 09:55:55;;;;;;;7.90;3.67;;;;;;;-150.07;100.00;67148.00;5052451;28;20037;-88
2022/05/26 09:58:30;;;;;;;16.48;4.47;;;;;;;-150.07;100.00;67148.00;5059637;28;20054;-89
2022/05/26 10:01:00;;;;;;;5.68;3.00;;;;;;;-150.07;100.00;67148.00;5076317;28;20036;-87
2022/05/26 10:03:50;;;;;;;13.82;3.17;;;;;;;-150.07;100.00;67148.00;5057652;28;20043;-85
2022/05/26 10:06:19;;;;;;;;;;;;;;;-150.07;100.00;67148.00;5078658;28;20055;-83
2022/05/26 10:09:07;;;;;;;12.18;4.00;;;;;;;-150.07;100.00;67148.00;5070907;28;19912;-84
2022/05/26 10:12:18;;;;;;;5.07;2.63;;;;;;;-150.07;100.00;67148.00;5056716;28;20041;-85
2022/05/26 10:14:54;;;;;;;6.82;3.67;;;;;;;-150.07;100.00;67148.00;5054031;28;20087;-89
2022/05/26 10:17:39;;;;;;;6.93;3.88;;;;;;;-150.07;100.00;67148.00;5048424;28;20154;-87
2022/05/26 10:20:28;;;;;;;6.88;3.90;;;;;;;-150.07;100.00;67148.00;5054383;28;20028;-91
2022/05/26 10:23:17;;;;;;;7.72;3.97;;;;;;;-150.07;100.00;67148.00;5062622;28;20087;-91
2022/05/26 10:26:09;;;;;;;11.35;3.78;;;;;;;-150.07;100.00;67148.00;5061406;28;20441;-88
2022/05/26 10:29:03;;;;;;;4.95;3.58;;;;;;;-150.07;100.00;67148.00;5076043;28;20051;-87
2022/05/26 10:31:44;;;;;;;7.68;3.80;;;;;;;-150.07;100.00;67148.00;5055249;28;20024;-86
2022/05/26 10:34:29;;;;;;;8.52;3.50;;;;;;;-150.07;100.00;67148.00;5056641;28;20531;-87
2022/05/26 10:37:44;;;;;;;10.23;5.47;;;;;;;-150.07;100.00;67148.00;5051974;28;20036;-86
2022/05/26 10:40:41;;;;;;;6.97;5.20;;;;;;;-150.07;100.00;67148.00;5049501;28;20119;-86
2022/05/26 10:43:18;;;;;;;7.93;3.33;;;;;;;-150.07;100.00;67148.00;5053867;28;20028;-85
2022/05/26 10:45:53;;;;;;;6.18;3.40;;;;;;;-150.07;100.00;67148.00;5055734;28;20075;-88
2022/05/26 10:48:31;;;;;;;8.77;4.03;;;;;;;-150.07;100.00;67148.00;5075352;28;20024;-86
2022/05/26 10:51:20;;;;;;;6.78;3.05;;;;;;;-150.07;100.00;67148.00;5069316;28;20049;-84
2022/05/26 10:53:51;;;;;;;5.68;3.00;;;;;;;-150.07;100.00;67148.00;5042114;28;20033;-78
2022/05/26 10:56:31;;;;;;;8.02;3.08;;;;;;;-150.07;100.00;67148.00;5072668;28;20401;-88
2022/05/26 10:59:03;;;;;;;;;;;;;;;-150.07;100.00;67148.00;5055334;28;20052;-89
2022/05/26 11:01:45;;;;;;;6.68;2.80;;;;;;;-150.07;100.00;67148.00;5051973;28;19916;-86
2022/05/26 11:04:27;;;;;;;5.60;3.05;;;;;;;-150.07;100.00;67148.00;5052489;28;20436;-82
2022/05/26 11:06:59;;;;;;;9.93;3.70;;;;;;;-150.07;100.00;67148.00;5053853;28;20025;-84
2022/05/26 11:09:51;;;;;;;6.20;2.90;;;;;;;-150.07;100.00;67148.00;5073750;28;20032;-86
2022/05/26 11:12:51;;;;;;;9.57;3.58;;;;;;;-150.07;100.00;67148.00;5057412;28;20032;-84
2022/05/26 11:18:16;;;;;;;6.05;3.92;;;;;;;-150.07;100.00;67148.00;5070725;28;20085;-90
2022/05/26 11:20:53;;;;;;;8.38;3.65;;;;;;;-150.07;100.00;67148.00;5069418;28;20028;-84
2022/05/26 11:23:22;;;;;;;10.02;3.78;;;;;;;-150.07;100.00;67148.00;5045012;28;20498;-85
2022/05/26 11:25:55;;;;;;;6.10;3.60;;;;;;;-150.07;100.00;67148.00;5052426;28;20036;-80
2022/05/26 11:28:57;;;;;;;15.35;4.07;;;;;;;-150.07;100.00;67148.00;5051026;28;20123;-82
2022/05/26 11:37:25;;;;;;;7.97;4.82;;;;;;;-150.07;100.00;67148.00;5069847;28;20051;-82
2022/05/26 11:40:02;;;;;;;6.85;3.70;;;;;;;-150.07;100.00;67148.00;5072410;28;20021;-81
2022/05/26 11:42:33;;;;;;;8.95;3.92;;;;;;;-150.07;100.00;67148.00;5071368;28;20028;-83
2022/05/26 11:45:09;;;;;;;7.22;3.60;;;;;;;-150.07;100.00;67148.00;5050889;28;20028;-84
2022/05/26 11:48:02;;;;;;;4.07;2.92;;;;;;;-150.07;100.00;67148.00;5054160;28;20036;-85
2022/05/26 11:50:57;;;;;;;5.35;3.03;;;;;;;-150.07;100.00;67148.00;5051951;28;20028;-81
2022/05/26 11:53:31;;;;;;;10.73;4.07;;;;;;;-150.07;100.00;67148.00;4999640;28;20054;-84
2022/05/26 11:56:04;;;;;;;3.63;3.03;;;;;;;-150.07;100.00;67148.00;5046773;28;20040;-85
2022/05/26 11:58:41;;;;;;;11.40;4.30;;;;;;;-150.07;100.00;67148.00;5068130;28;20057;-89
2022/05/26 12:01:25;;;;;;;11.85;3.28;;;;;;;-150.07;100.00;67148.00;5069476;28;20024;-82
2022/05/26 12:03:55;;;;;;;9.73;2.97;;;;;;;-150.07;100.00;67148.00;5070957;28;20376;-81
2022/05/26 12:06:42;;;;;;;6.72;3.13;;;;;;;-150.07;100.00;67148.00;5070811;28;20037;-80
2022/05/26 12:09:34;;;;;;;6.70;3.47;;;;;;;-150.07;100.00;67148.00;5072893;28;20032;-83
2022/05/26 12:12:03;;;;;;;4.43;3.20;;;;;;;-150.07;100.00;67148.00;5069404;28;20601;-80
2022/05/26 12:14:54;;;;;;;5.20;3.00;;;;;;;-150.07;100.00;67148.00;5073138;28;20025;-83
2022/05/26 12:17:36;;;;;;;9.23;2.75;;;;;;;-150.07;100.00;67148.00;5073783;28;20031;-83
2022/05/26 12:20:26;;;;;;;9.18;3.40;;;;;;;-150.07;100.00;67148.00;5072238;28;20035;-83
2022/05/26 12:22:53;;;;;;;6.85;2.30;;;;;;;-150.07;100.00;67148.00;5051419;28;20392;-82
2022/05/26 12:26:10;;;;;;;7.25;3.80;;;;;;;-150.07;100.00;67148.00;5070940;28;20047;-81
2022/05/26 12:28:37;;;;;;;9.90;3.05;;;;;;;-150.07;100.00;67148.00;5039175;28;20489;-86
2022/05/26 12:31:06;;;;;;;6.60;3.45;;;;;;;-150.07;100.00;67148.00;5071754;28;20025;-79
2022/05/26 12:33:53;;;;;;;6.28;3.20;;;;;;;-150.07;100.00;67148.00;5071641;28;20078;-80